sensor_id;sensor_type;location;lat;lon;timestamp;pressure;altitude;pressure_sealevel;temperature;humidity
19086;BME280;9675;51.538;6.728;2023-05-07T00:02:20;101266.56;;;19.95;89.96
19086;BME280;9675;51.538;6.728;2023-05-07T00:04:48;101266.56;;;19.95;90.18
19086;BME280;9675;51.538;6.728;2023-05-07T00:07:16;101271.81;;;19.95;89.28
19086;BME280;9675;51.538;6.728;2023-05-07T00:09:43;101266.53;;;19.92;90.54
19086;BME280;9675;51.538;6.728;2023-05-07T00:12:10;101268.22;;;19.90;90.74
19086;BME280;9675;51.538;6.728;2023-05-07T00:14:37;101265.56;;;19.87;90.38
19086;BME280;9675;51.538;6.728;2023-05-07T00:17:04;101266.41;;;19.86;92.11
19086;BME280;9675;51.538;6.728;2023-05-07T00:19:32;101263.75;;;19.83;90.68
19086;BME280;9675;51.538;6.728;2023-05-07T00:21:59;101269.75;;;19.79;92.22
19086;BME280;9675;51.538;6.728;2023-05-07T00:24:27;101266.25;;;19.77;92.64
19086;BME280;9675;51.538;6.728;2023-05-07T00:26:54;101262.72;;;19.75;92.72
19086;BME280;9675;51.538;6.728;2023-05-07T00:29:21;101245.25;;;19.73;94.38
19086;BME280;9675;51.538;6.728;2023-05-07T00:31:49;101256.56;;;19.72;94.55
19086;BME280;9675;51.538;6.728;2023-05-07T00:34:16;101246.06;;;19.69;94.57
19086;BME280;9675;51.538;6.728;2023-05-07T00:36:45;101250.41;;;19.68;94.29
19086;BME280;9675;51.538;6.728;2023-05-07T00:39:12;101239.00;;;19.65;94.38
19086;BME280;9675;51.538;6.728;2023-05-07T00:41:39;101231.16;;;19.63;95.74
19086;BME280;9675;51.538;6.728;2023-05-07T00:44:06;101238.06;;;19.61;95.25
19086;BME280;9675;51.538;6.728;2023-05-07T00:46:34;101237.16;;;19.59;95.87
19086;BME280;9675;51.538;6.728;2023-05-07T00:49:01;101244.94;;;19.56;95.84
19086;BME280;9675;51.538;6.728;2023-05-07T00:51:29;101243.16;;;19.55;96.89
19086;BME280;9675;51.538;6.728;2023-05-07T00:53:59;101244.88;;;19.53;95.70
19086;BME280;9675;51.538;6.728;2023-05-07T00:56:27;101236.13;;;19.51;96.62
19086;BME280;9675;51.538;6.728;2023-05-07T00:58:54;101236.94;;;19.48;98.56
19086;BME280;9675;51.538;6.728;2023-05-07T01:01:21;101237.78;;;19.46;98.98
19086;BME280;9675;51.538;6.728;2023-05-07T01:03:48;101231.59;;;19.44;99.85
19086;BME280;9675;51.538;6.728;2023-05-07T01:06:16;101237.66;;;19.41;98.48
19086;BME280;9675;51.538;6.728;2023-05-07T01:08:44;101241.94;;;19.39;98.91
19086;BME280;9675;51.538;6.728;2023-05-07T01:11:14;101237.56;;;19.38;99.92
19086;BME280;9675;51.538;6.728;2023-05-07T01:13:41;101227.97;;;19.36;100.00
19086;BME280;9675;51.538;6.728;2023-05-07T01:16:09;101223.53;;;19.32;100.00
19086;BME280;9675;51.538;6.728;2023-05-07T01:18:36;101224.34;;;19.29;100.00
19086;BME280;9675;51.538;6.728;2023-05-07T01:21:07;101221.69;;;19.28;100.00
19086;BME280;9675;51.538;6.728;2023-05-07T01:23:39;101226.00;;;19.26;100.00
19086;BME280;9675;51.538;6.728;2023-05-07T01:26:07;101229.47;;;19.25;100.00
19086;BME280;9675;51.538;6.728;2023-05-07T01:28:34;101226.81;;;19.22;100.00
19086;BME280;9675;51.538;6.728;2023-05-07T01:31:04;101229.34;;;19.19;100.00
19086;BME280;9675;51.538;6.728;2023-05-07T01:33:35;101230.22;;;19.19;100.00
19086;BME280;9675;51.538;6.728;2023-05-07T01:36:04;101225.84;;;19.17;100.00
19086;BME280;9675;51.538;6.728;2023-05-07T01:38:35;101221.38;;;19.13;100.00
19086;BME280;9675;51.538;6.728;2023-05-07T01:41:04;101230.06;;;19.12;100.00
19086;BME280;9675;51.538;6.728;2023-05-07T01:43:31;101219.56;;;19.08;100.00
19086;BME280;9675;51.538;6.728;2023-05-07T01:45:59;101222.09;;;19.05;100.00
19086;BME280;9675;51.538;6.728;2023-05-07T01:48:28;101217.69;;;19.03;100.00
19086;BME280;9675;51.538;6.728;2023-05-07T01:50:56;101228.97;;;19.02;100.00
19086;BME280;9675;51.538;6.728;2023-05-07T01:53:23;101230.69;;;19.00;100.00
19086;BME280;9675;51.538;6.728;2023-05-07T01:55:50;101240.25;;;18.99;100.00
19086;BME280;9675;51.538;6.728;2023-05-07T01:58:18;101243.69;;;18.98;100.00
19086;BME280;9675;51.538;6.728;2023-05-07T02:00:45;101237.53;;;18.96;100.00
19086;BME280;9675;51.538;6.728;2023-05-07T02:03:12;101235.72;;;18.92;100.00
19086;BME280;9675;51.538;6.728;2023-05-07T02:05:39;101231.34;;;18.91;100.00
19086;BME280;9675;51.538;6.728;2023-05-07T02:08:06;101232.19;;;18.89;100.00
19086;BME280;9675;51.538;6.728;2023-05-07T02:10:33;101234.75;;;18.87;100.00
19086;BME280;9675;51.538;6.728;2023-05-07T02:13:01;101234.69;;;18.84;100.00
19086;BME280;9675;51.538;6.728;2023-05-07T02:15:30;101229.38;;;18.81;100.00
19086;BME280;9675;51.538;6.728;2023-05-07T02:18:01;101229.38;;;18.80;100.00
19086;BME280;9675;51.538;6.728;2023-05-07T02:20:29;101235.38;;;18.77;100.00
19086;BME280;9675;51.538;6.728;2023-05-07T02:22:56;101229.28;;;18.75;100.00
19086;BME280;9675;51.538;6.728;2023-05-07T02:25:23;101224.84;;;18.73;100.00
19086;BME280;9675;51.538;6.728;2023-05-07T02:27:50;101231.75;;;18.71;100.00
19086;BME280;9675;51.538;6.728;2023-05-07T02:30:17;101236.97;;;18.69;100.00
19086;BME280;9675;51.538;6.728;2023-05-07T02:32:48;101240.34;;;18.66;100.00
19086;BME280;9675;51.538;6.728;2023-05-07T02:35:15;101230.72;;;18.62;100.00
19086;BME280;9675;51.538;6.728;2023-05-07T02:37:42;101227.22;;;18.62;100.00
19086;BME280;9675;51.538;6.728;2023-05-07T02:40:11;101239.38;;;18.60;100.00
19086;BME280;9675;51.538;6.728;2023-05-07T02:42:38;101228.00;;;18.58;100.00
19086;BME280;9675;51.538;6.728;2023-05-07T02:45:07;101226.19;;;18.55;100.00
19086;BME280;9675;51.538;6.728;2023-05-07T02:47:34;101226.03;;;18.51;100.00
19086;BME280;9675;51.538;6.728;2023-05-07T02:50:04;101228.66;;;18.51;100.00
19086;BME280;9675;51.538;6.728;2023-05-07T02:52:31;101216.44;;;18.50;100.00
19086;BME280;9675;51.538;6.728;2023-05-07T02:54:58;101224.22;;;18.47;100.00
19086;BME280;9675;51.538;6.728;2023-05-07T02:57:25;101221.56;;;18.45;100.00
19086;BME280;9675;51.538;6.728;2023-05-07T02:59:52;101221.56;;;18.44;100.00
19086;BME280;9675;51.538;6.728;2023-05-07T03:02:19;101219.69;;;18.40;100.00
19086;BME280;9675;51.538;6.728;2023-05-07T03:04:46;101226.63;;;18.38;100.00
19086;BME280;9675;51.538;6.728;2023-05-07T03:07:14;101224.84;;;18.37;100.00
19086;BME280;9675;51.538;6.728;2023-05-07T03:09:41;101226.53;;;18.35;100.00
19086;BME280;9675;51.538;6.728;2023-05-07T03:12:08;101223.03;;;18.33;100.00
19086;BME280;9675;51.538;6.728;2023-05-07T03:14:35;101222.94;;;18.30;100.00
19086;BME280;9675;51.538;6.728;2023-05-07T03:17:02;101226.34;;;18.27;100.00
19086;BME280;9675;51.538;6.728;2023-05-07T03:19:29;101234.97;;;18.24;100.00
19086;BME280;9675;51.538;6.728;2023-05-07T03:21:57;101230.63;;;18.23;100.00
19086;BME280;9675;51.538;6.728;2023-05-07T03:24:25;101226.19;;;18.21;100.00
19086;BME280;9675;51.538;6.728;2023-05-07T03:26:52;101224.41;;;18.18;100.00
19086;BME280;9675;51.538;6.728;2023-05-07T03:29:19;101224.38;;;18.17;100.00
19086;BME280;9675;51.538;6.728;2023-05-07T03:31:46;101219.06;;;18.14;100.00
19086;BME280;9675;51.538;6.728;2023-05-07T03:34:13;101220.81;;;18.13;100.00
19086;BME280;9675;51.538;6.728;2023-05-07T03:36:41;101221.66;;;18.12;100.00
19086;BME280;9675;51.538;6.728;2023-05-07T03:39:08;101217.28;;;18.11;100.00
19086;BME280;9675;51.538;6.728;2023-05-07T03:41:36;101216.34;;;18.09;100.00
19086;BME280;9675;51.538;6.728;2023-05-07T03:44:03;101218.06;;;18.07;100.00
19086;BME280;9675;51.538;6.728;2023-05-07T03:46:31;101214.50;;;18.05;100.00
19086;BME280;9675;51.538;6.728;2023-05-07T03:48:58;101224.00;;;18.03;100.00
19086;BME280;9675;51.538;6.728;2023-05-07T03:51:25;101218.72;;;18.00;100.00
19086;BME280;9675;51.538;6.728;2023-05-07T03:53:52;101225.59;;;17.98;100.00
19086;BME280;9675;51.538;6.728;2023-05-07T03:56:19;101219.44;;;17.95;100.00
19086;BME280;9675;51.538;6.728;2023-05-07T03:58:48;101223.78;;;17.94;100.00
19086;BME280;9675;51.538;6.728;2023-05-07T04:01:15;101227.19;;;17.92;100.00
19086;BME280;9675;51.538;6.728;2023-05-07T04:03:42;101227.97;;;17.89;100.00
19086;BME280;9675;51.538;6.728;2023-05-07T04:06:09;101229.69;;;17.87;100.00
19086;BME280;9675;51.538;6.728;2023-05-07T04:08:37;101232.28;;;17.87;100.00
19086;BME280;9675;51.538;6.728;2023-05-07T04:11:04;101233.03;;;17.83;100.00
19086;BME280;9675;51.538;6.728;2023-05-07T04:13:31;101235.56;;;17.80;100.00
19086;BME280;9675;51.538;6.728;2023-05-07T04:16:02;101232.03;;;17.78;100.00
19086;BME280;9675;51.538;6.728;2023-05-07T04:18:29;101236.41;;;17.79;100.00
19086;BME280;9675;51.538;6.728;2023-05-07T04:20:57;101232.84;;;17.75;100.00
19086;BME280;9675;51.538;6.728;2023-05-07T04:23:24;101231.97;;;17.75;100.00
19086;BME280;9675;51.538;6.728;2023-05-07T04:25:51;101229.31;;;17.73;100.00
19086;BME280;9675;51.538;6.728;2023-05-07T04:28:18;101226.69;;;17.72;100.00
19086;BME280;9675;51.538;6.728;2023-05-07T04:30:45;101232.72;;;17.71;100.00
19086;BME280;9675;51.538;6.728;2023-05-07T04:33:14;101226.59;;;17.69;100.00
19086;BME280;9675;51.538;6.728;2023-05-07T04:35:42;101228.25;;;17.67;100.00
19086;BME280;9675;51.538;6.728;2023-05-07T04:38:09;101235.16;;;17.65;100.00
19086;BME280;9675;51.538;6.728;2023-05-07T04:40:36;101245.56;;;17.65;100.00
19086;BME280;9675;51.538;6.728;2023-05-07T04:43:04;101240.28;;;17.62;100.00
19086;BME280;9675;51.538;6.728;2023-05-07T04:45:32;101243.75;;;17.61;100.00
19086;BME280;9675;51.538;6.728;2023-05-07T04:47:59;101243.59;;;17.58;100.00
19086;BME280;9675;51.538;6.728;2023-05-07T04:50:27;101243.59;;;17.58;100.00
19086;BME280;9675;51.538;6.728;2023-05-07T04:52:54;101237.50;;;17.56;100.00
19086;BME280;9675;51.538;6.728;2023-05-07T04:55:21;101245.25;;;17.54;100.00
19086;BME280;9675;51.538;6.728;2023-05-07T04:57:48;101245.19;;;17.53;100.00
19086;BME280;9675;51.538;6.728;2023-05-07T05:00:16;101244.28;;;17.51;100.00
19086;BME280;9675;51.538;6.728;2023-05-07T05:02:45;101246.78;;;17.48;100.00
19086;BME280;9675;51.538;6.728;2023-05-07T05:05:12;101246.75;;;17.46;100.00
19086;BME280;9675;51.538;6.728;2023-05-07T05:07:40;101248.50;;;17.46;100.00
19086;BME280;9675;51.538;6.728;2023-05-07T05:10:08;101245.78;;;17.42;100.00
19086;BME280;9675;51.538;6.728;2023-05-07T05:12:35;101244.06;;;17.43;100.00
19086;BME280;9675;51.538;6.728;2023-05-07T05:15:02;101250.94;;;17.41;100.00
19086;BME280;9675;51.538;6.728;2023-05-07T05:17:29;101256.13;;;17.41;100.00
19086;BME280;9675;51.538;6.728;2023-05-07T05:19:56;101254.41;;;17.40;100.00
19086;BME280;9675;51.538;6.728;2023-05-07T05:22:23;101250.03;;;17.39;100.00
19086;BME280;9675;51.538;6.728;2023-05-07T05:24:52;101256.00;;;17.36;100.00
19086;BME280;9675;51.538;6.728;2023-05-07T05:27:19;101247.31;;;17.36;100.00
19086;BME280;9675;51.538;6.728;2023-05-07T05:29:46;101251.63;;;17.34;100.00
19086;BME280;9675;51.538;6.728;2023-05-07T05:32:13;101251.56;;;17.32;100.00
19086;BME280;9675;51.538;6.728;2023-05-07T05:34:40;101254.03;;;17.28;100.00
19086;BME280;9675;51.538;6.728;2023-05-07T05:37:07;101259.19;;;17.26;100.00
19086;BME280;9675;51.538;6.728;2023-05-07T05:39:34;101262.69;;;17.27;100.00
19086;BME280;9675;51.538;6.728;2023-05-07T05:42:03;101262.63;;;17.25;100.00
19086;BME280;9675;51.538;6.728;2023-05-07T05:44:30;101265.22;;;17.25;100.00
19086;BME280;9675;51.538;6.728;2023-05-07T05:46:57;101268.69;;;17.24;100.00
19086;BME280;9675;51.538;6.728;2023-05-07T05:49:25;101274.72;;;17.23;100.00
19086;BME280;9675;51.538;6.728;2023-05-07T05:51:52;101279.88;;;17.22;100.00
19086;BME280;9675;51.538;6.728;2023-05-07T05:54:19;101275.56;;;17.22;100.00
19086;BME280;9675;51.538;6.728;2023-05-07T05:56:46;101273.78;;;17.21;100.00
19086;BME280;9675;51.538;6.728;2023-05-07T05:59:16;101269.41;;;17.20;100.00
19086;BME280;9675;51.538;6.728;2023-05-07T06:01:45;101265.06;;;17.19;100.00
19086;BME280;9675;51.538;6.728;2023-05-07T06:04:12;101271.16;;;17.20;100.00
19086;BME280;9675;51.538;6.728;2023-05-07T06:06:39;101274.63;;;17.20;100.00
19086;BME280;9675;51.538;6.728;2023-05-07T06:09:06;101280.78;;;17.22;100.00
19086;BME280;9675;51.538;6.728;2023-05-07T06:11:33;101284.22;;;17.21;100.00
19086;BME280;9675;51.538;6.728;2023-05-07T06:14:00;101281.59;;;17.21;100.00
19086;BME280;9675;51.538;6.728;2023-05-07T06:16:29;101287.75;;;17.23;100.00
19086;BME280;9675;51.538;6.728;2023-05-07T06:18:59;101279.94;;;17.23;100.00
19086;BME280;9675;51.538;6.728;2023-05-07T06:21:27;101293.00;;;17.25;100.00
19086;BME280;9675;51.538;6.728;2023-05-07T06:23:54;101289.59;;;17.27;100.00
19086;BME280;9675;51.538;6.728;2023-05-07T06:26:21;101294.91;;;17.30;100.00
19086;BME280;9675;51.538;6.728;2023-05-07T06:28:48;101296.66;;;17.31;100.00
19086;BME280;9675;51.538;6.728;2023-05-07T06:31:18;101296.72;;;17.33;100.00
19086;BME280;9675;51.538;6.728;2023-05-07T06:33:48;101295.94;;;17.35;100.00
19086;BME280;9675;51.538;6.728;2023-05-07T06:36:15;101297.66;;;17.36;100.00
19086;BME280;9675;51.538;6.728;2023-05-07T06:38:42;101294.22;;;17.37;100.00
19086;BME280;9675;51.538;6.728;2023-05-07T06:41:10;101288.28;;;17.41;100.00
19086;BME280;9675;51.538;6.728;2023-05-07T06:43:37;101291.81;;;17.43;100.00
19086;BME280;9675;51.538;6.728;2023-05-07T06:46:04;101295.34;;;17.46;100.00
19086;BME280;9675;51.538;6.728;2023-05-07T06:48:31;101289.28;;;17.47;100.00
19086;BME280;9675;51.538;6.728;2023-05-07T06:50:59;101290.22;;;17.49;100.00
19086;BME280;9675;51.538;6.728;2023-05-07T06:53:26;101287.69;;;17.52;100.00
19086;BME280;9675;51.538;6.728;2023-05-07T06:55:54;101293.84;;;17.54;100.00
19086;BME280;9675;51.538;6.728;2023-05-07T06:58:21;101295.63;;;17.55;100.00
19086;BME280;9675;51.538;6.728;2023-05-07T07:00:48;101301.78;;;17.58;100.00
19086;BME280;9675;51.538;6.728;2023-05-07T07:03:16;101296.66;;;17.60;100.00
19086;BME280;9675;51.538;6.728;2023-05-07T07:05:43;101294.13;;;17.63;100.00
19086;BME280;9675;51.538;6.728;2023-05-07T07:08:11;101294.22;;;17.66;100.00
19086;BME280;9675;51.538;6.728;2023-05-07T07:10:38;101294.25;;;17.67;100.00
19086;BME280;9675;51.538;6.728;2023-05-07T07:13:06;101295.19;;;17.69;100.00
19086;BME280;9675;51.538;6.728;2023-05-07T07:15:33;101296.97;;;17.70;100.00
19086;BME280;9675;51.538;6.728;2023-05-07T07:17:59;101301.34;;;17.73;100.00
19086;BME280;9675;51.538;6.728;2023-05-07T07:20:27;101306.66;;;17.76;100.00
19086;BME280;9675;51.538;6.728;2023-05-07T07:22:54;101304.09;;;17.77;100.00
19086;BME280;9675;51.538;6.728;2023-05-07T07:25:22;101298.09;;;17.80;100.00
19086;BME280;9675;51.538;6.728;2023-05-07T07:27:50;101305.16;;;17.84;100.00
19086;BME280;9675;51.538;6.728;2023-05-07T07:30:17;101304.38;;;17.87;100.00
19086;BME280;9675;51.538;6.728;2023-05-07T07:32:44;101307.03;;;17.90;100.00
19086;BME280;9675;51.538;6.728;2023-05-07T07:35:11;101296.72;;;17.93;100.00
19086;BME280;9675;51.538;6.728;2023-05-07T07:37:38;101301.13;;;17.95;100.00
19086;BME280;9675;51.538;6.728;2023-05-07T07:40:07;101301.16;;;17.97;100.00
19086;BME280;9675;51.538;6.728;2023-05-07T07:42:36;101302.13;;;18.00;100.00
19086;BME280;9675;51.538;6.728;2023-05-07T07:45:04;101296.97;;;18.03;100.00
19086;BME280;9675;51.538;6.728;2023-05-07T07:47:31;101290.97;;;18.06;100.00
19086;BME280;9675;51.538;6.728;2023-05-07T07:49:58;101297.13;;;18.09;100.00
19086;BME280;9675;51.538;6.728;2023-05-07T07:52:25;101300.75;;;18.14;100.00
19086;BME280;9675;51.538;6.728;2023-05-07T07:54:52;101304.28;;;18.16;100.00
19086;BME280;9675;51.538;6.728;2023-05-07T07:57:19;101304.34;;;18.19;100.00
19086;BME280;9675;51.538;6.728;2023-05-07T07:59:48;101299.25;;;18.24;100.00
19086;BME280;9675;51.538;6.728;2023-05-07T08:02:16;101304.63;;;18.29;100.00
19086;BME280;9675;51.538;6.728;2023-05-07T08:04:43;101308.22;;;18.34;100.00
19086;BME280;9675;51.538;6.728;2023-05-07T08:07:10;101310.91;;;18.37;100.00
19086;BME280;9675;51.538;6.728;2023-05-07T08:09:38;101314.50;;;18.42;100.00
19086;BME280;9675;51.538;6.728;2023-05-07T08:12:06;101313.72;;;18.46;100.00
19086;BME280;9675;51.538;6.728;2023-05-07T08:14:33;101317.34;;;18.51;100.00
19086;BME280;9675;51.538;6.728;2023-05-07T08:17:03;101314.88;;;18.55;100.00
19086;BME280;9675;51.538;6.728;2023-05-07T08:19:30;101325.47;;;18.61;100.00
19086;BME280;9675;51.538;6.728;2023-05-07T08:21:57;101322.06;;;18.65;100.00
19086;BME280;9675;51.538;6.728;2023-05-07T08:24:24;101317.00;;;18.70;100.00
19086;BME280;9675;51.538;6.728;2023-05-07T08:26:52;101309.22;;;18.73;100.00
19086;BME280;9675;51.538;6.728;2023-05-07T08:29:19;101313.72;;;18.79;100.00
19086;BME280;9675;51.538;6.728;2023-05-07T08:31:46;101323.41;;;18.84;100.00
19086;BME280;9675;51.538;6.728;2023-05-07T08:34:14;101318.25;;;18.87;100.00
19086;BME280;9675;51.538;6.728;2023-05-07T08:36:41;101324.44;;;18.91;100.00
19086;BME280;9675;51.538;6.728;2023-05-07T08:39:08;101319.28;;;18.94;100.00
19086;BME280;9675;51.538;6.728;2023-05-07T08:41:35;101323.78;;;18.99;100.00
19086;BME280;9675;51.538;6.728;2023-05-07T08:44:06;101323.00;;;19.03;100.00
19086;BME280;9675;51.538;6.728;2023-05-07T08:46:39;101326.63;;;19.10;100.00
19086;BME280;9675;51.538;6.728;2023-05-07T08:49:06;101332.88;;;19.17;100.00
19086;BME280;9675;51.538;6.728;2023-05-07T08:51:36;101322.50;;;19.20;100.00
19086;BME280;9675;51.538;6.728;2023-05-07T08:54:04;101320.81;;;19.22;100.00
19086;BME280;9675;51.538;6.728;2023-05-07T08:56:32;101324.41;;;19.27;100.00
19086;BME280;9675;51.538;6.728;2023-05-07T08:58:59;101326.28;;;19.32;100.00
19086;BME280;9675;51.538;6.728;2023-05-07T09:01:26;101328.03;;;19.35;100.00
19086;BME280;9675;51.538;6.728;2023-05-07T09:03:54;101327.25;;;19.39;100.00
19086;BME280;9675;51.538;6.728;2023-05-07T09:06:21;101324.75;;;19.43;100.00
19086;BME280;9675;51.538;6.728;2023-05-07T09:08:54;101330.97;;;19.48;100.00
19086;BME280;9675;51.538;6.728;2023-05-07T09:11:21;101331.09;;;19.53;100.00
19086;BME280;9675;51.538;6.728;2023-05-07T09:13:53;101329.47;;;19.58;100.00
19086;BME280;9675;51.538;6.728;2023-05-07T09:16:22;101326.91;;;19.61;100.00
19086;BME280;9675;51.538;6.728;2023-05-07T09:18:52;101317.38;;;19.65;100.00
19086;BME280;9675;51.538;6.728;2023-05-07T09:21:21;101327.03;;;19.67;100.00
19086;BME280;9675;51.538;6.728;2023-05-07T09:23:50;101325.41;;;19.72;100.00
19086;BME280;9675;51.538;6.728;2023-05-07T09:26:21;101324.59;;;19.76;100.00
19086;BME280;9675;51.538;6.728;2023-05-07T09:28:48;101321.22;;;19.82;100.00
19086;BME280;9675;51.538;6.728;2023-05-07T09:31:15;101319.53;;;19.85;100.00
19086;BME280;9675;51.538;6.728;2023-05-07T09:33:42;101326.63;;;19.91;100.00
19086;BME280;9675;51.538;6.728;2023-05-07T09:36:10;101325.88;;;19.97;100.00
19086;BME280;9675;51.538;6.728;2023-05-07T09:38:37;101318.13;;;20.03;100.00
19086;BME280;9675;51.538;6.728;2023-05-07T09:41:07;101313.03;;;20.09;100.00
19086;BME280;9675;51.538;6.728;2023-05-07T09:43:38;101315.81;;;20.18;100.00
19086;BME280;9675;51.538;6.728;2023-05-07T09:46:08;101317.72;;;20.28;100.00
19086;BME280;9675;51.538;6.728;2023-05-07T09:48:39;101313.53;;;20.34;100.00
19086;BME280;9675;51.538;6.728;2023-05-07T09:51:18;101320.72;;;20.46;100.00
19086;BME280;9675;51.538;6.728;2023-05-07T09:53:49;101326.13;;;20.58;100.00
19086;BME280;9675;51.538;6.728;2023-05-07T09:56:18;101316.72;;;20.69;100.00
19086;BME280;9675;51.538;6.728;2023-05-07T09:58:50;101316.84;;;20.78;100.00
19086;BME280;9675;51.538;6.728;2023-05-07T10:01:20;101317.88;;;20.88;97.37
19086;BME280;9675;51.538;6.728;2023-05-07T10:03:50;101310.19;;;20.99;94.01
19086;BME280;9675;51.538;6.728;2023-05-07T10:06:19;101313.00;;;21.12;94.36
19086;BME280;9675;51.538;6.728;2023-05-07T10:08:47;101310.53;;;21.20;94.72
19086;BME280;9675;51.538;6.728;2023-05-07T10:11:16;101311.56;;;21.31;89.52
19086;BME280;9675;51.538;6.728;2023-05-07T10:13:43;101310.84;;;21.43;87.59
19086;BME280;9675;51.538;6.728;2023-05-07T10:16:12;101306.63;;;21.57;87.46
19086;BME280;9675;51.538;6.728;2023-05-07T10:18:40;101304.16;;;21.68;86.46
19086;BME280;9675;51.538;6.728;2023-05-07T10:21:16;101307.75;;;21.77;83.94
19086;BME280;9675;51.538;6.728;2023-05-07T10:23:47;101310.50;;;21.86;84.27
19086;BME280;9675;51.538;6.728;2023-05-07T10:26:18;101304.50;;;21.95;81.95
19086;BME280;9675;51.538;6.728;2023-05-07T10:28:52;101308.97;;;22.05;79.62
19086;BME280;9675;51.538;6.728;2023-05-07T10:31:43;101311.75;;;22.20;78.17
19086;BME280;9675;51.538;6.728;2023-05-07T10:34:20;101313.63;;;22.35;75.68
19086;BME280;9675;51.538;6.728;2023-05-07T10:36:49;101311.13;;;22.47;75.55
19086;BME280;9675;51.538;6.728;2023-05-07T10:39:17;101309.44;;;22.57;76.07
19086;BME280;9675;51.538;6.728;2023-05-07T10:41:46;101312.09;;;22.61;74.13
19086;BME280;9675;51.538;6.728;2023-05-07T10:44:25;101306.94;;;22.69;72.23
19086;BME280;9675;51.538;6.728;2023-05-07T10:47:08;101307.88;;;22.77;71.85
19086;BME280;9675;51.538;6.728;2023-05-07T10:49:38;101307.09;;;22.87;70.13
19086;BME280;9675;51.538;6.728;2023-05-07T10:52:24;101313.28;;;22.97;69.75
19086;BME280;9675;51.538;6.728;2023-05-07T10:55:20;101302.84;;;23.09;67.90
19086;BME280;9675;51.538;6.728;2023-05-07T10:57:48;101305.53;;;23.19;66.45
19086;BME280;9675;51.538;6.728;2023-05-07T11:00:41;101301.19;;;23.32;66.06
19086;BME280;9675;51.538;6.728;2023-05-07T11:03:11;101302.16;;;23.42;65.43
19086;BME280;9675;51.538;6.728;2023-05-07T11:05:38;101300.47;;;23.47;65.77
19086;BME280;9675;51.538;6.728;2023-05-07T11:08:06;101300.44;;;23.50;64.19
19086;BME280;9675;51.538;6.728;2023-05-07T11:10:50;101312.75;;;23.57;63.31
19086;BME280;9675;51.538;6.728;2023-05-07T11:13:19;101304.00;;;23.61;63.43
19086;BME280;9675;51.538;6.728;2023-05-07T11:16:17;101298.78;;;23.67;62.90
19086;BME280;9675;51.538;6.728;2023-05-07T11:18:49;101297.91;;;23.74;62.08
19086;BME280;9675;51.538;6.728;2023-05-07T11:21:33;101299.69;;;23.81;61.98
19086;BME280;9675;51.538;6.728;2023-05-07T11:24:02;101289.19;;;23.86;60.98
19086;BME280;9675;51.538;6.728;2023-05-07T11:26:31;101290.94;;;23.90;60.59
19086;BME280;9675;51.538;6.728;2023-05-07T11:29:11;101292.69;;;23.95;60.00
19086;BME280;9675;51.538;6.728;2023-05-07T11:31:40;101296.22;;;24.06;59.26
19086;BME280;9675;51.538;6.728;2023-05-07T11:34:08;101291.00;;;24.20;58.90
19086;BME280;9675;51.538;6.728;2023-05-07T11:36:41;101295.44;;;24.33;59.03
19086;BME280;9675;51.538;6.728;2023-05-07T11:39:24;101291.91;;;24.42;58.10
19086;BME280;9675;51.538;6.728;2023-05-07T11:41:51;101286.66;;;24.45;57.34
19086;BME280;9675;51.538;6.728;2023-05-07T11:44:18;101298.94;;;24.49;56.40
19086;BME280;9675;51.538;6.728;2023-05-07T11:46:48;101295.44;;;24.59;55.46
19086;BME280;9675;51.538;6.728;2023-05-07T11:49:16;101299.81;;;24.65;55.85
19086;BME280;9675;51.538;6.728;2023-05-07T11:51:43;101299.78;;;24.68;55.84
19086;BME280;9675;51.538;6.728;2023-05-07T11:54:16;101298.06;;;24.71;54.70
19086;BME280;9675;51.538;6.728;2023-05-07T11:56:44;101294.53;;;24.80;54.27
19086;BME280;9675;51.538;6.728;2023-05-07T11:59:17;101293.63;;;24.85;54.17
19086;BME280;9675;51.538;6.728;2023-05-07T12:01:47;101295.41;;;24.89;53.81
19086;BME280;9675;51.538;6.728;2023-05-07T12:04:19;101298.91;;;24.99;53.62
19086;BME280;9675;51.538;6.728;2023-05-07T12:06:47;101298.91;;;25.04;53.64
19086;BME280;9675;51.538;6.728;2023-05-07T12:09:14;101303.31;;;25.08;53.04
19086;BME280;9675;51.538;6.728;2023-05-07T12:11:46;101304.16;;;25.10;53.28
19086;BME280;9675;51.538;6.728;2023-05-07T12:14:13;101301.53;;;25.13;53.27
19086;BME280;9675;51.538;6.728;2023-05-07T12:16:42;101305.03;;;25.16;52.92
19086;BME280;9675;51.538;6.728;2023-05-07T12:19:11;101307.66;;;25.18;52.96
19086;BME280;9675;51.538;6.728;2023-05-07T12:21:39;101304.13;;;25.20;53.16
19086;BME280;9675;51.538;6.728;2023-05-07T12:24:08;101305.91;;;25.23;52.90
19086;BME280;9675;51.538;6.728;2023-05-07T12:26:38;101307.63;;;25.24;52.59
19086;BME280;9675;51.538;6.728;2023-05-07T12:29:06;101311.13;;;25.24;52.85
19086;BME280;9675;51.538;6.728;2023-05-07T12:31:33;101308.53;;;25.23;52.97
19086;BME280;9675;51.538;6.728;2023-05-07T12:34:00;101305.88;;;25.20;53.16
19086;BME280;9675;51.538;6.728;2023-05-07T12:36:37;101312.03;;;25.19;53.46
19086;BME280;9675;51.538;6.728;2023-05-07T12:39:04;101312.03;;;25.19;54.16
19086;BME280;9675;51.538;6.728;2023-05-07T12:41:36;101319.09;;;25.17;54.97
19086;BME280;9675;51.538;6.728;2023-05-07T12:44:18;101312.94;;;25.12;56.06
19086;BME280;9675;51.538;6.728;2023-05-07T12:46:47;101317.34;;;25.05;57.26
19086;BME280;9675;51.538;6.728;2023-05-07T12:49:14;101316.50;;;24.95;58.81
19086;BME280;9675;51.538;6.728;2023-05-07T12:51:42;101320.88;;;24.86;59.62
19086;BME280;9675;51.538;6.728;2023-05-07T12:54:09;101319.09;;;24.82;60.61
19086;BME280;9675;51.538;6.728;2023-05-07T12:56:36;101315.59;;;24.78;61.65
19086;BME280;9675;51.538;6.728;2023-05-07T12:59:04;101320.84;;;24.77;63.52
19086;BME280;9675;51.538;6.728;2023-05-07T13:01:34;101324.38;;;24.73;64.56